Time;durP1;ratioP1;P1;durP2;ratioP2;P2;SDS_P1;SDS_P2;PMS_P1;PMS_P2;Temp;Humidity;BMP_temperature;BMP_pressure;BME280_temperature;BME280_humidity;BME280_pressure;Samples;Min_cycle;Max_cycle;Signal;HPM_P1;HPM_P2
2022/05/14 00:00:30;;;;;;;10.07;2.35;;;13.30;99.90;;;;;;5074104;28;20025;-77
2022/05/14 00:02:56;;;;;;;12.68;2.63;;;13.30;99.90;;;;;;5078220;28;20033;-75
2022/05/14 00:05:23;;;;;;;7.90;2.50;;;13.20;99.90;;;;;;5094199;28;20026;-73
2022/05/14 00:07:52;;;;;;;19.83;3.28;;;13.10;99.90;;;;;;5093962;28;20028;-73
2022/05/14 00:10:24;;;;;;;15.13;2.22;;;13.20;99.90;;;;;;5094287;28;20539;-76
2022/05/14 00:13:05;;;;;;;12.27;2.63;;;13.10;99.90;;;;;;5093934;28;20123;-76
2022/05/14 00:15:41;;;;;;;11.30;2.40;;;13.20;99.90;;;;;;5093974;28;20469;-76
2022/05/14 00:18:09;;;;;;;7.20;2.75;;;13.10;99.90;;;;;;5094240;28;20031;-77
2022/05/14 00:20:38;;;;;;;8.40;2.08;;;13.10;99.90;;;;;;5092556;28;20028;-77
2022/05/14 00:23:05;;;;;;;9.05;2.42;;;13.10;99.90;;;;;;5093677;28;20028;-77
2022/05/14 00:25:32;;;;;;;12.50;2.58;;;13.10;99.90;;;;;;5093913;28;20434;-77
2022/05/14 00:27:58;;;;;;;10.20;2.08;;;13.30;99.90;;;;;;5093866;28;20105;-77
2022/05/14 00:30:27;;;;;;;8.70;2.90;;;13.40;99.90;;;;;;5092411;28;20031;-77
2022/05/14 00:32:54;;;;;;;11.38;2.10;;;13.10;99.90;;;;;;5092495;28;20040;-77
2022/05/14 00:35:23;;;;;;;9.00;2.00;;;13.20;99.90;;;;;;5093837;28;20028;-77
2022/05/14 00:37:49;;;;;;;9.07;2.78;;;13.10;99.90;;;;;;5092203;28;20107;-76
2022/05/14 00:40:35;;;;;;;12.93;2.45;;;13.30;99.90;;;;;;5093701;28;20055;-76
2022/05/14 00:43:02;;;;;;;11.00;2.55;;;13.30;99.90;;;;;;5092414;28;20024;-77
2022/05/14 00:45:30;;;;;;;9.32;2.50;;;13.10;99.90;;;;;;5091514;28;20074;-76
2022/05/14 00:47:59;;;;;;;13.10;2.45;;;13.00;99.90;;;;;;5077108;28;20028;-76
2022/05/14 00:50:39;;;;;;;11.73;2.85;;;13.00;99.90;;;;;;5072028;28;20052;-77
2022/05/14 00:53:12;;;;;;;7.03;2.07;;;13.00;99.90;;;;;;5072006;28;20147;-77
2022/05/14 00:55:39;;;;;;;9.50;2.50;;;12.80;99.90;;;;;;5071911;28;20369;-77
2022/05/14 00:58:08;;;;;;;11.85;2.13;;;12.80;99.90;;;;;;5071841;28;20157;-76
2022/05/14 01:00:34;;;;;;;8.30;1.80;;;12.80;99.90;;;;;;5071925;28;20024;-77
2022/05/14 01:03:00;;;;;;;9.20;2.40;;;12.80;99.90;;;;;;5076442;28;20473;-76
2022/05/14 01:05:27;;;;;;;11.50;3.03;;;12.80;99.90;;;;;;5091305;28;20217;-76
2022/05/14 01:07:55;;;;;;;9.88;2.83;;;12.70;99.90;;;;;;5093249;28;20067;-77
2022/05/14 01:10:26;;;;;;;9.18;2.60;;;12.60;99.90;;;;;;5091930;28;20025;-75
2022/05/14 01:12:58;;;;;;;9.52;2.80;;;12.50;99.90;;;;;;5092106;28;20020;-75
2022/05/14 01:15:41;;;;;;;9.85;2.35;;;12.30;99.90;;;;;;5091848;28;20510;-76
2022/05/14 01:18:08;;;;;;;11.68;2.75;;;12.20;99.90;;;;;;5091808;28;20024;-76
2022/05/14 01:20:35;;;;;;;15.20;3.17;;;12.30;99.90;;;;;;5091327;28;20028;-75
2022/05/14 01:23:31;;;;;;;12.02;2.60;;;12.30;99.90;;;;;;5091742;28;20028;-76
2022/05/14 01:26:27;;;;;;;10.85;2.75;;;12.40;99.90;;;;;;5092926;28;20070;-76
2022/05/14 01:29:13;;;;;;;14.57;2.75;;;12.40;99.90;;;;;;5074989;28;20485;-76
2022/05/14 01:31:40;;;;;;;9.50;2.22;;;12.40;99.90;;;;;;5091687;28;20016;-77
2022/05/14 01:34:24;;;;;;;13.65;2.53;;;12.40;99.90;;;;;;5091132;28;20059;-77
2022/05/14 01:36:50;;;;;;;11.65;2.83;;;12.50;99.90;;;;;;5091589;28;20415;-76
2022/05/14 01:39:18;;;;;;;11.93;2.70;;;12.40;99.90;;;;;;5091650;28;20039;-76
2022/05/14 01:41:44;;;;;;;10.05;3.10;;;12.30;99.90;;;;;;5091707;28;20572;-77
2022/05/14 01:44:11;;;;;;;12.25;2.33;;;12.30;99.90;;;;;;5091431;28;20024;-77
2022/05/14 01:46:38;;;;;;;11.52;3.15;;;12.30;99.90;;;;;;5088900;28;20027;-76
2022/05/14 01:49:06;;;;;;;14.57;3.03;;;12.00;99.90;;;;;;5071067;28;20103;-77
2022/05/14 01:51:33;;;;;;;10.82;2.90;;;12.00;99.90;;;;;;5071235;28;20044;-76
2022/05/14 01:54:00;;;;;;;12.70;2.58;;;12.10;99.90;;;;;;5071313;28;20025;-76
2022/05/14 01:56:26;;;;;;;10.98;2.70;;;11.80;99.90;;;;;;5072917;28;20040;-76
2022/05/14 01:58:52;;;;;;;13.43;2.97;;;11.90;99.90;;;;;;5058665;28;20066;-77
2022/05/14 02:01:24;;;;;;;10.52;2.85;;;12.00;99.90;;;;;;5074933;28;20035;-76
2022/05/14 02:03:57;;;;;;;11.18;2.97;;;12.20;99.90;;;;;;5086650;28;20026;-76
2022/05/14 02:06:26;;;;;;;10.30;3.95;;;12.30;99.90;;;;;;5095247;28;20073;-76
2022/05/14 02:08:52;;;;;;;12.30;2.70;;;11.90;99.90;;;;;;5095220;28;20047;-77
2022/05/14 02:11:21;;;;;;;10.63;3.08;;;11.60;99.90;;;;;;5096569;28;20031;-76
2022/05/14 02:13:51;;;;;;;16.17;3.40;;;11.80;99.90;;;;;;5094938;28;20039;-76
2022/05/14 02:16:17;;;;;;;11.13;2.65;;;11.90;99.90;;;;;;5095202;28;20031;-77
2022/05/14 02:18:43;;;;;;;10.93;2.70;;;11.90;99.90;;;;;;5094847;28;20039;-76
2022/05/14 02:21:10;;;;;;;11.73;2.67;;;11.90;99.90;;;;;;5095115;28;20045;-76
2022/05/14 02:23:38;;;;;;;5.95;2.40;;;12.10;99.90;;;;;;5094787;28;20089;-76
2022/05/14 02:26:05;;;;;;;13.98;3.92;;;12.10;99.90;;;;;;5095072;28;20020;-77
2022/05/14 02:28:32;;;;;;;11.50;2.63;;;11.90;99.90;;;;;;5094608;28;20044;-76
2022/05/14 02:30:58;;;;;;;11.65;3.03;;;11.90;99.90;;;;;;5094970;28;20070;-77
2022/05/14 02:33:24;;;;;;;11.07;3.38;;;12.10;99.90;;;;;;5095767;28;20089;-76
2022/05/14 02:35:50;;;;;;;12.70;3.00;;;12.00;99.90;;;;;;5094655;28;20115;-76
2022/05/14 02:38:16;;;;;;;12.30;3.05;;;11.70;99.90;;;;;;5077787;28;20123;-76
2022/05/14 02:40:43;;;;;;;11.13;3.40;;;11.70;99.90;;;;;;5094763;28;20028;-76
2022/05/14 02:43:10;;;;;;;13.35;3.40;;;11.70;99.90;;;;;;5095893;28;20043;-76
2022/05/14 02:45:37;;;;;;;15.57;3.03;;;11.60;99.90;;;;;;5094702;28;20077;-76
2022/05/14 02:48:03;;;;;;;11.70;2.78;;;11.50;99.90;;;;;;5079862;28;20111;-77
2022/05/14 02:50:29;;;;;;;10.70;3.33;;;11.40;99.90;;;;;;5074328;28;20040;-77
2022/05/14 02:52:56;;;;;;;13.02;4.30;;;11.40;99.90;;;;;;5075572;28;20029;-76
2022/05/14 02:55:22;;;;;;;10.55;3.10;;;11.60;99.90;;;;;;5075432;28;20047;-76
2022/05/14 02:57:48;;;;;;;12.95;3.60;;;11.50;99.90;;;;;;5074052;28;20028;-76
2022/05/14 03:00:18;;;;;;;11.43;3.17;;;11.50;99.90;;;;;;5074182;28;20024;-77
2022/05/14 03:02:45;;;;;;;17.15;3.25;;;11.60;99.90;;;;;;5077240;28;20100;-77
2022/05/14 03:05:13;;;;;;;14.23;3.60;;;11.50;99.90;;;;;;5094093;28;20024;-76
2022/05/14 03:07:40;;;;;;;16.85;3.67;;;11.40;99.90;;;;;;5093687;28;20036;-77
2022/05/14 03:10:07;;;;;;;11.57;3.20;;;11.20;99.90;;;;;;5093599;28;20395;-76
2022/05/14 03:12:33;;;;;;;18.52;3.70;;;10.90;99.90;;;;;;5093998;28;20035;-76
2022/05/14 03:15:00;;;;;;;13.85;3.67;;;10.60;99.90;;;;;;5077301;28;20537;-76
2022/05/14 03:17:27;;;;;;;14.25;4.10;;;10.70;99.90;;;;;;5093617;28;20017;-76
2022/05/14 03:19:54;;;;;;;11.15;3.30;;;10.80;99.90;;;;;;5093935;28;20400;-76
2022/05/14 03:22:20;;;;;;;11.82;3.50;;;11.00;99.90;;;;;;5093871;28;20117;-76
2022/05/14 03:24:47;;;;;;;18.52;5.00;;;11.00;99.90;;;;;;5093611;28;20024;-76
2022/05/14 03:27:13;;;;;;;13.50;3.65;;;11.10;99.90;;;;;;5093908;28;20107;-74
2022/05/14 03:29:40;;;;;;;13.77;4.43;;;11.10;99.90;;;;;;5093657;28;20043;-76
2022/05/14 03:32:06;;;;;;;17.38;3.28;;;11.10;99.90;;;;;;5094860;28;20103;-76
2022/05/14 03:34:33;;;;;;;13.50;3.38;;;11.20;99.90;;;;;;5093413;28;20055;-75
2022/05/14 03:37:00;;;;;;;14.27;4.03;;;11.20;99.90;;;;;;5093767;28;20024;-75
2022/05/14 03:39:26;;;;;;;14.80;4.43;;;11.20;99.90;;;;;;5093465;28;20032;-76
2022/05/14 03:41:52;;;;;;;13.85;3.70;;;11.20;99.90;;;;;;5095167;28;20027;-75
2022/05/14 03:44:18;;;;;;;19.75;4.28;;;11.30;99.90;;;;;;5094702;28;20034;-76
2022/05/14 03:46:44;;;;;;;13.25;4.38;;;11.20;99.90;;;;;;5088741;28;20424;-75
2022/05/14 03:49:10;;;;;;;14.15;3.88;;;11.20;99.90;;;;;;5072896;28;20037;-76
2022/05/14 03:51:36;;;;;;;18.88;4.50;;;10.90;99.90;;;;;;5074323;28;20052;-76
2022/05/14 03:54:04;;;;;;;20.40;4.95;;;10.90;99.90;;;;;;5073001;28;20063;-76
2022/05/14 03:56:31;;;;;;;15.13;3.63;;;11.00;99.90;;;;;;5073070;28;20462;-76
2022/05/14 03:58:58;;;;;;;19.92;4.38;;;11.10;99.90;;;;;;5084536;28;20464;-76
2022/05/14 04:01:24;;;;;;;12.10;4.03;;;11.00;99.90;;;;;;5093256;28;20024;-76
2022/05/14 04:03:50;;;;;;;16.55;3.60;;;11.10;99.90;;;;;;5093174;28;20016;-77
2022/05/14 04:06:16;;;;;;;15.18;4.40;;;11.10;99.90;;;;;;5093988;28;20478;-76
2022/05/14 04:08:42;;;;;;;19.17;4.28;;;11.10;99.90;;;;;;5094210;28;20047;-76
2022/05/14 04:11:08;;;;;;;13.60;3.72;;;10.90;99.90;;;;;;5076070;28;20028;-76
2022/05/14 04:13:35;;;;;;;23.20;4.65;;;11.10;99.90;;;;;;5092631;28;20419;-76
2022/05/14 04:16:01;;;;;;;21.77;5.00;;;11.30;99.90;;;;;;5092939;28;20036;-76
2022/05/14 04:18:28;;;;;;;20.73;4.03;;;11.20;99.90;;;;;;5092922;28;20066;-77
2022/05/14 04:20:56;;;;;;;20.75;4.57;;;11.40;99.90;;;;;;5092489;28;20024;-76
2022/05/14 04:23:25;;;;;;;14.52;4.35;;;11.30;99.90;;;;;;5092635;28;20028;-76
2022/05/14 04:25:52;;;;;;;14.63;4.53;;;11.30;99.90;;;;;;5075914;28;20022;-76
2022/05/14 04:28:21;;;;;;;19.10;4.78;;;11.40;99.90;;;;;;5092351;28;20115;-76
2022/05/14 04:30:48;;;;;;;11.30;4.30;;;11.60;99.90;;;;;;5092436;28;20464;-76
2022/05/14 04:33:15;;;;;;;17.13;4.43;;;11.50;99.90;;;;;;5075578;28;20042;-76
2022/05/14 04:35:41;;;;;;;18.58;5.95;;;11.50;99.90;;;;;;5075432;28;20059;-76
2022/05/14 04:38:07;;;;;;;19.90;4.88;;;11.70;99.90;;;;;;5092605;28;20438;-73
2022/05/14 04:40:33;;;;;;;15.30;4.35;;;11.70;99.90;;;;;;5092215;28;20024;-73
2022/05/14 04:43:00;;;;;;;15.00;4.22;;;11.70;99.90;;;;;;5093419;28;20036;-73
2022/05/14 04:45:26;;;;;;;14.80;4.82;;;11.90;99.90;;;;;;5092241;28;20032;-75
2022/05/14 04:47:53;;;;;;;13.32;4.30;;;11.70;99.90;;;;;;5078207;28;20412;-75
2022/05/14 04:50:20;;;;;;;18.13;4.70;;;11.90;99.90;;;;;;5072056;28;20085;-76
2022/05/14 04:52:45;;;;;;;19.00;5.47;;;11.60;99.90;;;;;;5073237;28;21070;-75
2022/05/14 04:55:13;;;;;;;19.73;4.57;;;11.30;99.90;;;;;;5071861;28;20116;-76
2022/05/14 04:57:43;;;;;;;23.13;5.07;;;11.50;99.90;;;;;;5055210;28;20378;-76
2022/05/14 05:00:13;;;;;;;26.77;5.45;;;11.60;99.90;;;;;;5071980;28;20059;-76
2022/05/14 05:05:26;;;;;;;13.57;4.68;;;11.30;99.90;;;;;;5092953;28;20020;-74
2022/05/14 05:07:52;;;;;;;18.70;4.63;;;11.60;99.90;;;;;;5091853;28;20068;-73
2022/05/14 05:10:18;;;;;;;18.35;5.22;;;11.50;99.90;;;;;;5092244;28;20032;-75
2022/05/14 05:12:44;;;;;;;18.17;5.20;;;11.10;99.90;;;;;;5092600;28;20027;-72
2022/05/14 05:15:11;;;;;;;18.75;5.50;;;10.90;99.90;;;;;;5093632;28;20050;-74
2022/05/14 05:17:37;;;;;;;17.48;5.10;;;11.00;99.90;;;;;;5093441;28;20396;-74
2022/05/14 05:20:04;;;;;;;22.05;6.43;;;11.30;99.90;;;;;;5093103;28;20043;-74
2022/05/14 05:22:30;;;;;;;19.48;5.75;;;11.40;99.90;;;;;;5092888;28;20484;-75
2022/05/14 05:24:56;;;;;;;21.92;5.80;;;11.50;99.90;;;;;;5091875;28;20060;-75
2022/05/14 05:27:22;;;;;;;22.02;6.32;;;11.70;99.90;;;;;;5092891;28;20017;-75
2022/05/14 05:29:48;;;;;;;20.13;6.28;;;11.90;99.90;;;;;;5092711;28;20444;-74
2022/05/14 05:32:15;;;;;;;19.83;6.75;;;11.90;99.90;;;;;;5092369;28;20059;-76
2022/05/14 05:34:40;;;;;;;16.63;6.18;;;12.00;99.90;;;;;;5091835;28;20392;-76
2022/05/14 05:37:06;;;;;;;19.90;6.93;;;12.30;99.90;;;;;;5092998;28;20047;-76
2022/05/14 05:39:32;;;;;;;23.00;6.57;;;12.50;99.90;;;;;;5093072;28;20028;-75
2022/05/14 05:41:58;;;;;;;17.33;6.65;;;12.10;99.90;;;;;;5091102;28;20111;-75
2022/05/14 05:44:27;;;;;;;24.25;7.28;;;12.20;99.90;;;;;;5093199;28;20166;-76
2022/05/14 05:46:54;;;;;;;23.90;7.95;;;12.30;99.90;;;;;;5085558;28;20029;-74
2022/05/14 05:49:20;;;;;;;26.75;7.90;;;12.40;99.90;;;;;;5072740;28;20048;-76
2022/05/14 05:51:47;;;;;;;23.85;7.72;;;12.50;99.90;;;;;;5072430;28;20029;-76
2022/05/14 05:56:59;;;;;;;29.58;8.68;;;12.70;99.90;;;;;;5072178;28;20027;-76
2022/05/14 05:59:27;;;;;;;25.13;9.48;;;12.70;99.90;;;;;;5054711;28;20028;-76
2022/05/14 06:01:54;;;;;;;30.15;9.18;;;12.60;99.90;;;;;;5072310;28;20056;-76
2022/05/14 06:04:21;;;;;;;41.55;9.88;;;12.70;99.90;;;;;;5088377;28;20028;-76
2022/05/14 06:06:47;;;;;;;30.08;10.80;;;12.70;99.90;;;;;;5088916;28;20032;-77
2022/05/14 06:09:18;;;;;;;39.72;10.10;;;12.90;99.90;;;;;;5108636;28;20063;-77
2022/05/14 06:11:45;;;;;;;24.88;9.57;;;12.90;99.90;;;;;;5078454;28;20519;-76
2022/05/14 06:14:12;;;;;;;33.70;10.98;;;12.90;99.90;;;;;;5104024;28;20032;-76
2022/05/14 06:16:39;;;;;;;35.47;10.15;;;12.70;99.90;;;;;;5103008;28;20043;-76
2022/05/14 06:19:06;;;;;;;22.42;8.52;;;12.70;99.90;;;;;;5096200;28;20369;-75
2022/05/14 06:21:32;;;;;;;37.28;10.65;;;12.80;99.90;;;;;;5075956;28;20029;-75
2022/05/14 06:23:58;;;;;;;26.25;9.68;;;13.10;99.90;;;;;;5106657;28;20051;-76
2022/05/14 06:26:24;;;;;;;29.90;11.35;;;13.40;99.90;;;;;;5101252;28;20416;-76
2022/05/14 06:28:50;;;;;;;37.05;11.43;;;13.20;99.90;;;;;;5099426;28;20093;-77
2022/05/14 06:31:16;;;;;;;29.73;10.68;;;13.30;99.90;;;;;;5108126;28;20078;-75
2022/05/14 06:33:44;;;;;;;37.65;12.10;;;13.30;99.90;;;;;;5095430;28;20020;-76
2022/05/14 06:36:10;;;;;;;34.20;13.18;;;13.30;99.90;;;;;;5105172;28;20414;-77
2022/05/14 06:38:36;;;;;;;37.08;12.35;;;13.70;99.90;;;;;;5102023;28;20043;-75
2022/05/14 06:41:07;;;;;;;31.73;11.18;;;14.10;99.90;;;;;;5098051;28;20031;-76
2022/05/14 06:43:33;;;;;;;56.03;12.93;;;14.00;99.90;;;;;;5107842;28;20047;-76
2022/05/14 06:45:58;;;;;;;30.92;11.18;;;13.90;99.90;;;;;;5101025;28;20265;-76
2022/05/14 06:48:24;;;;;;;38.50;11.75;;;13.60;99.90;;;;;;5096109;28;20513;-76
2022/05/14 06:50:50;;;;;;;38.30;11.88;;;13.70;99.90;;;;;;5086106;28;20050;-76
2022/05/14 06:53:18;;;;;;;32.10;11.02;;;14.00;99.90;;;;;;5079016;28;20380;-76
2022/05/14 06:55:47;;;;;;;33.80;11.95;;;14.20;99.90;;;;;;5075360;28;20025;-73
2022/05/14 06:58:19;;;;;;;41.35;12.18;;;14.40;99.90;;;;;;5074661;28;20039;-76
2022/05/14 07:00:46;;;;;;;37.20;12.98;;;14.60;99.90;;;;;;5083818;28;20453;-77
2022/05/14 07:08:42;;;;;;;39.13;12.90;;;14.90;99.90;;;;;;5102502;28;20052;-77
2022/05/14 07:11:10;;;;;;;34.67;12.32;;;14.90;99.90;;;;;;5110082;28;20484;-77
2022/05/14 07:13:37;;;;;;;30.88;11.85;;;15.10;99.90;;;;;;5097686;28;20024;-78
2022/05/14 07:16:04;;;;;;;38.10;13.40;;;15.10;99.90;;;;;;5082465;28;20477;-74
2022/05/14 07:18:30;;;;;;;39.05;12.45;;;15.40;99.90;;;;;;5088530;28;20040;-76
2022/05/14 07:20:56;;;;;;;28.05;11.93;;;15.20;99.90;;;;;;5074311;28;20024;-76
2022/05/14 07:23:21;;;;;;;35.22;11.52;;;15.10;99.90;;;;;;5073725;28;20111;-76
2022/05/14 07:25:47;;;;;;;35.78;11.82;;;15.40;99.90;;;;;;5074843;28;20044;-75
2022/05/14 07:28:14;;;;;;;43.88;12.43;;;15.40;99.90;;;;;;5074062;28;20039;-77
2022/05/14 07:30:40;;;;;;;31.27;11.07;;;15.60;99.90;;;;;;5073911;28;20028;-76
2022/05/14 07:33:05;;;;;;;33.25;11.65;;;15.90;99.90;;;;;;5073021;28;20031;-77
2022/05/14 07:35:33;;;;;;;29.83;11.80;;;16.10;99.90;;;;;;5076881;28;20046;-74
2022/05/14 07:38:03;;;;;;;32.55;10.45;;;16.00;99.90;;;;;;5084388;28;20021;-77
2022/05/14 07:40:32;;;;;;;24.42;10.07;;;16.20;99.90;;;;;;5077417;28;20029;-77
2022/05/14 07:43:01;;;;;;;32.88;9.88;;;16.20;99.90;;;;;;5085023;28;20030;-76
2022/05/14 07:45:41;;;;;;;28.95;9.43;;;16.10;99.90;;;;;;5077593;28;20282;-77
2022/05/14 07:48:16;;;;;;;19.38;7.68;;;16.30;99.90;;;;;;5073946;28;20041;-76
2022/05/14 07:50:42;;;;;;;41.30;9.98;;;16.20;99.90;;;;;;5076767;28;20037;-76
2022/05/14 07:53:08;;;;;;;28.55;9.18;;;15.90;99.90;;;;;;5078721;28;20020;-76
2022/05/14 07:55:36;;;;;;;37.97;10.38;;;16.20;99.90;;;;;;5071563;28;20147;-76
2022/05/14 07:58:03;;;;;;;37.17;9.52;;;16.40;99.90;;;;;;5079603;28;20461;-76
2022/05/14 08:00:29;;;;;;;29.27;8.95;;;17.00;99.90;;;;;;5077779;28;20032;-77
2022/05/14 08:02:55;;;;;;;27.08;9.23;;;16.70;99.90;;;;;;5082412;28;20023;-76
2022/05/14 08:05:20;;;;;;;26.70;9.07;;;16.50;99.90;;;;;;5079432;28;20021;-77
2022/05/14 08:07:47;;;;;;;19.77;7.93;;;16.50;99.90;;;;;;5083486;28;20491;-76
2022/05/14 08:10:16;;;;;;;25.05;7.50;;;16.70;99.90;;;;;;5077670;28;20632;-77
2022/05/14 08:12:49;;;;;;;26.48;7.50;;;16.60;99.90;;;;;;5107920;28;20035;-77
2022/05/14 08:15:16;;;;;;;29.23;9.18;;;17.00;99.90;;;;;;5100805;28;20028;-77
2022/05/14 08:17:43;;;;;;;24.23;8.20;;;17.40;99.90;;;;;;5104071;28;20019;-77
2022/05/14 08:20:10;;;;;;;27.38;8.65;;;18.00;99.90;;;;;;5107192;28;20046;-77
2022/05/14 08:25:21;;;;;;;25.20;8.13;;;18.00;99.90;;;;;;5079887;28;20104;-78
2022/05/14 08:27:47;;;;;;;35.42;7.38;;;18.50;99.90;;;;;;5092858;28;20052;-78
2022/05/14 08:30:33;;;;;;;20.33;7.35;;;18.50;99.90;;;;;;5092307;28;20028;-78
2022/05/14 08:32:59;;;;;;;24.98;7.72;;;18.10;99.90;;;;;;5092638;28;20058;-77
2022/05/14 08:35:28;;;;;;;31.70;8.05;;;18.40;99.90;;;;;;5105168;28;20020;-73
2022/05/14 08:37:55;;;;;;;22.75;8.60;;;18.60;99.90;;;;;;5104944;28;20031;-75
2022/05/14 08:40:37;;;;;;;20.10;7.78;;;18.10;99.90;;;;;;5086962;28;20039;-75
2022/05/14 08:43:14;;;;;;;27.48;7.82;;;18.10;99.90;;;;;;5079497;28;20016;-76
2022/05/14 08:45:40;;;;;;;22.90;6.63;;;18.60;99.90;;;;;;5074719;28;20036;-76
2022/05/14 08:48:15;;;;;;;26.05;7.78;;;19.00;99.90;;;;;;5074970;28;20031;-76
2022/05/14 08:50:42;;;;;;;22.25;7.18;;;19.20;99.90;;;;;;5071086;28;20605;-76
2022/05/14 08:53:12;;;;;;;29.73;7.10;;;19.40;99.90;;;;;;5072146;28;20019;-77
2022/05/14 08:55:49;;;;;;;31.13;8.57;;;19.00;99.90;;;;;;5073330;28;20383;-76
2022/05/14 08:58:52;;;;;;;25.13;7.88;;;19.20;99.90;;;;;;5073518;28;20443;-76
2022/05/14 09:01:23;;;;;;;29.85;7.50;;;19.20;99.90;;;;;;5087758;28;20024;-77
2022/05/14 09:03:49;;;;;;;28.92;7.80;;;18.50;99.90;;;;;;5078669;28;20032;-76
2022/05/14 09:06:14;;;;;;;22.48;6.88;;;18.80;99.90;;;;;;5079563;28;20025;-76
2022/05/14 09:08:40;;;;;;;25.05;7.28;;;18.70;99.90;;;;;;5072703;28;20150;-77
2022/05/14 09:11:17;;;;;;;21.42;7.07;;;18.90;99.90;;;;;;5072157;28;20388;-77
2022/05/14 09:13:47;;;;;;;24.88;7.25;;;18.50;99.90;;;;;;5090667;28;20077;-77
2022/05/14 09:16:28;;;;;;;18.52;6.80;;;19.00;99.90;;;;;;5091700;28;20128;-77
2022/05/14 09:18:54;;;;;;;22.63;5.97;;;19.50;99.90;;;;;;5072035;28;20092;-77
2022/05/14 09:21:27;;;;;;;20.83;7.15;;;19.40;99.90;;;;;;5071975;28;20024;-78
2022/05/14 09:23:55;;;;;;;22.95;7.45;;;19.50;99.90;;;;;;5072153;28;20110;-75
2022/05/14 09:26:38;;;;;;;26.60;6.75;;;19.90;99.70;;;;;;5070987;28;20055;-77
2022/05/14 09:29:28;;;;;;;25.58;6.47;;;20.10;99.50;;;;;;5075734;28;20050;-77
2022/05/14 09:31:59;;;;;;;20.20;6.57;;;20.00;99.90;;;;;;5096441;28;20024;-77
2022/05/14 09:34:29;;;;;;;28.10;6.70;;;20.00;99.90;;;;;;5101274;28;20480;-77
2022/05/14 09:37:07;;;;;;;23.63;7.18;;;20.30;99.40;;;;;;5108137;28;20500;-77
2022/05/14 09:39:32;;;;;;;25.23;6.90;;;20.20;99.00;;;;;;5078157;28;20028;-76
2022/05/14 09:42:01;;;;;;;25.95;6.32;;;20.00;99.90;;;;;;5085783;28;20525;-77
2022/05/14 09:44:46;;;;;;;22.35;6.22;;;20.20;98.30;;;;;;5081263;28;20036;-77
2022/05/14 09:47:34;;;;;;;19.85;5.13;;;20.10;98.20;;;;;;5099591;28;20099;-77
2022/05/14 09:50:03;;;;;;;20.70;5.85;;;20.10;97.90;;;;;;5093165;28;20032;-76
2022/05/14 09:52:32;;;;;;;19.77;6.20;;;20.10;97.60;;;;;;5100675;28;20032;-77
2022/05/14 09:55:01;;;;;;;20.98;6.05;;;20.00;98.30;;;;;;5108511;28;20043;-77
2022/05/14 09:58:00;;;;;;;20.25;5.10;;;20.40;98.00;;;;;;5090080;28;20066;-75
2022/05/14 10:01:00;;;;;;;19.85;6.28;;;20.20;97.60;;;;;;5102472;28;20443;-78
2022/05/14 10:03:36;;;;;;;20.58;5.40;;;20.40;98.60;;;;;;5092546;28;20059;-78
2022/05/14 10:06:07;;;;;;;18.35;5.53;;;20.40;96.40;;;;;;5100449;28;20088;-78
2022/05/14 10:09:11;;;;;;;20.15;6.07;;;19.70;97.10;;;;;;5099988;28;20036;-79
2022/05/14 10:11:44;;;;;;;27.00;5.10;;;20.00;98.00;;;;;;5069518;28;20098;-76
2022/05/14 10:14:51;;;;;;;22.83;6.35;;;20.40;97.10;;;;;;5068279;28;20032;-77
2022/05/14 10:17:50;;;;;;;29.42;6.80;;;20.40;96.20;;;;;;5069700;28;20033;-76
2022/05/14 10:20:41;;;;;;;21.10;5.85;;;20.00;97.70;;;;;;5075437;28;20044;-76
2022/05/14 10:29:21;;;;;;;15.93;5.63;;;20.00;98.00;;;;;;5075836;28;20071;-77
2022/05/14 10:32:11;;;;;;;26.35;6.45;;;20.60;96.30;;;;;;5075712;28;20534;-74
2022/05/14 10:34:59;;;;;;;20.10;6.82;;;21.00;95.10;;;;;;5074527;28;20425;-77
2022/05/14 10:37:28;;;;;;;24.25;6.70;;;20.70;96.20;;;;;;5075584;28;20029;-77
2022/05/14 10:40:25;;;;;;;16.88;5.97;;;20.90;96.00;;;;;;5074348;28;20031;-73
2022/05/14 10:42:54;;;;;;;16.98;5.32;;;20.50;95.60;;;;;;5075595;28;20124;-76
2022/05/14 10:45:32;;;;;;;17.15;5.55;;;20.40;95.10;;;;;;5075360;28;20036;-73
2022/05/14 10:48:00;;;;;;;16.50;5.40;;;21.00;94.90;;;;;;5089920;28;20032;-75
2022/05/14 10:50:29;;;;;;;18.95;6.20;;;21.60;94.20;;;;;;5095644;28;20032;-76
2022/05/14 10:52:56;;;;;;;16.50;5.13;;;21.40;94.20;;;;;;5095737;28;20031;-74
2022/05/14 10:55:30;;;;;;;20.90;5.28;;;22.00;93.90;;;;;;5095684;28;20027;-76
2022/05/14 10:58:02;;;;;;;23.42;5.00;;;22.30;92.90;;;;;;5095720;28;20024;-74
2022/05/14 11:00:29;;;;;;;21.10;6.03;;;22.30;92.70;;;;;;5095175;28;20385;-74
2022/05/14 11:03:24;;;;;;;14.35;5.05;;;22.30;92.70;;;;;;5094040;28;20055;-76
2022/05/14 11:06:04;;;;;;;15.98;5.28;;;21.70;93.20;;;;;;5095195;28;20214;-77
2022/05/14 11:08:43;;;;;;;13.75;4.03;;;22.00;92.60;;;;;;5093816;28;20060;-77
2022/05/14 11:11:25;;;;;;;18.13;4.65;;;22.70;92.00;;;;;;5095385;28;20039;-76
2022/05/14 11:14:02;;;;;;;17.55;4.97;;;22.80;91.40;;;;;;5095242;28;20028;-77
2022/05/14 11:16:50;;;;;;;15.55;5.30;;;22.30;91.30;;;;;;5095182;28;20043;-75
2022/05/14 11:19:28;;;;;;;23.23;5.30;;;22.50;91.80;;;;;;5095201;28;20016;-75
2022/05/14 11:21:55;;;;;;;16.45;5.47;;;22.80;90.50;;;;;;5094332;28;20131;-73
2022/05/14 11:24:38;;;;;;;18.70;4.05;;;23.20;91.00;;;;;;5095103;28;20032;-76
2022/05/14 11:27:05;;;;;;;23.58;4.93;;;23.20;90.10;;;;;;5093788;28;20028;-76
2022/05/14 11:29:46;;;;;;;14.45;4.28;;;22.70;88.90;;;;;;5093777;28;20484;-74
2022/05/14 11:32:16;;;;;;;14.90;4.95;;;22.80;90.10;;;;;;5093731;28;20023;-76
2022/05/14 11:34:57;;;;;;;14.82;4.90;;;23.30;88.50;;;;;;5079675;28;20043;-76
2022/05/14 11:37:48;;;;;;;16.98;5.40;;;23.90;89.80;;;;;;5075017;28;20029;-75
2022/05/14 11:40:17;;;;;;;20.50;4.93;;;23.90;89.40;;;;;;5069079;28;20040;-76
2022/05/14 11:42:44;;;;;;;15.95;4.47;;;23.60;89.70;;;;;;5074476;28;20099;-74
2022/05/14 11:45:13;;;;;;;16.55;5.35;;;23.80;87.90;;;;;;5074302;28;20031;-75
2022/05/14 11:47:53;;;;;;;22.05;6.80;;;23.60;87.90;;;;;;5086372;28;20025;-76
2022/05/14 11:50:26;;;;;;;20.67;6.97;;;24.10;88.70;;;;;;5094346;28;20036;-75
2022/05/14 11:53:13;;;;;;;31.40;5.90;;;24.10;85.90;;;;;;5094673;28;20032;-75
2022/05/14 11:55:57;;;;;;;26.70;7.47;;;23.70;86.90;;;;;;5094446;28;20036;-75
2022/05/14 11:58:50;;;;;;;18.98;6.32;;;23.90;88.00;;;;;;5094254;28;20032;-76
2022/05/14 12:01:26;;;;;;;21.80;6.55;;;24.50;86.30;;;;;;5094458;28;20028;-76
2022/05/14 12:03:53;;;;;;;23.77;6.72;;;24.00;87.40;;;;;;5093241;28;20035;-77
2022/05/14 12:06:41;;;;;;;17.60;5.95;;;24.50;87.60;;;;;;5094165;28;20043;-76
2022/05/14 12:09:49;;;;;;;20.20;6.75;;;24.40;87.80;;;;;;5094181;28;20044;-77
2022/05/14 12:12:50;;;;;;;26.20;6.90;;;24.80;86.70;;;;;;5094236;28;20016;-75
2022/05/14 12:15:22;;;;;;;27.95;7.00;;;25.00;86.30;;;;;;5092853;28;20034;-77
2022/05/14 12:17:49;;;;;;;17.35;6.20;;;24.60;88.20;;;;;;5094145;28;20020;-77
2022/05/14 12:20:30;;;;;;;19.15;6.60;;;25.00;85.60;;;;;;5094145;28;20027;-75
2022/05/14 12:23:02;;;;;;;16.95;6.38;;;24.70;85.80;;;;;;5094236;28;20040;-77
2022/05/14 12:25:42;;;;;;;16.63;5.90;;;24.40;85.00;;;;;;5093960;28;20020;-77
2022/05/14 12:28:29;;;;;;;19.55;6.70;;;24.30;84.90;;;;;;5092533;28;20365;-76
2022/05/14 12:33:56;;;;;;;17.60;6.55;;;25.20;85.10;;;;;;5093864;28;20051;-78
2022/05/14 12:36:23;;;;;;;21.48;6.57;;;25.90;85.00;;;;;;5093828;28;20028;-77
2022/05/14 12:38:49;;;;;;;21.80;6.05;;;25.80;83.00;;;;;;5093654;28;20060;-77
2022/05/14 12:41:27;;;;;;;19.40;6.70;;;25.80;83.50;;;;;;5079365;28;20492;-76
2022/05/14 12:43:53;;;;;;;18.17;5.45;;;25.70;83.20;;;;;;5093791;28;20025;-76
2022/05/14 12:46:21;;;;;;;15.98;5.80;;;25.90;83.00;;;;;;5092457;28;20024;-77
2022/05/14 12:48:50;;;;;;;19.77;5.40;;;26.50;81.90;;;;;;5073253;28;20036;-77
2022/05/14 12:51:22;;;;;;;12.25;5.07;;;26.50;79.50;;;;;;5073036;28;20043;-77
2022/05/14 12:53:49;;;;;;;16.73;6.18;;;26.80;83.10;;;;;;5073151;28;20098;-76
2022/05/14 12:56:18;;;;;;;22.25;6.15;;;26.60;79.00;;;;;;5072980;28;20055;-76
2022/05/14 12:58:45;;;;;;;22.38;5.57;;;26.30;79.60;;;;;;5073262;28;20036;-77
2022/05/14 13:01:11;;;;;;;22.15;6.00;;;27.30;78.80;;;;;;5071736;28;20032;-77
2022/05/14 13:03:42;;;;;;;18.15;6.70;;;28.10;78.10;;;;;;5082707;28;20035;-77
2022/05/14 13:06:19;;;;;;;16.02;5.95;;;27.20;80.00;;;;;;5093164;28;20059;-77
2022/05/14 13:08:51;;;;;;;18.88;7.18;;;27.00;81.20;;;;;;5092118;28;20054;-76
2022/05/14 13:11:23;;;;;;;20.83;6.45;;;27.30;79.40;;;;;;5092760;28;20075;-76
2022/05/14 13:13:53;;;;;;;13.63;5.57;;;26.70;81.20;;;;;;5093149;28;20106;-77
2022/05/14 13:16:27;;;;;;;21.02;5.75;;;28.10;81.30;;;;;;5093070;28;20027;-77